sensor_id;sensor_type;location;lat;lon;timestamp;pressure;altitude;pressure_sealevel;temperature;humidity
39363;BME280;25088;43.238;23.110;2023-11-18T00:01:58;95787.69;;;10.44;90.32
39363;BME280;25088;43.238;23.110;2023-11-18T00:04:24;95797.78;;;10.53;89.90
39363;BME280;25088;43.238;23.110;2023-11-18T00:06:50;95775.41;;;10.46;90.05
39363;BME280;25088;43.238;23.110;2023-11-18T00:09:16;95785.50;;;10.66;88.29
39363;BME280;25088;43.238;23.110;2023-11-18T00:11:43;95769.41;;;10.54;88.88
39363;BME280;25088;43.238;23.110;2023-11-18T00:14:09;95759.84;;;10.42;89.78
39363;BME280;25088;43.238;23.110;2023-11-18T00:16:36;95771.59;;;10.52;89.31
39363;BME280;25088;43.238;23.110;2023-11-18T00:19:02;95772.69;;;10.61;89.13
39363;BME280;25088;43.238;23.110;2023-11-18T00:21:30;95784.69;;;10.71;89.39
39363;BME280;25088;43.238;23.110;2023-11-18T00:23:56;95774.28;;;10.73;88.59
39363;BME280;25088;43.238;23.110;2023-11-18T00:26:22;95784.69;;;10.76;88.06
39363;BME280;25088;43.238;23.110;2023-11-18T00:28:47;95792.06;;;10.70;89.00
39363;BME280;25088;43.238;23.110;2023-11-18T00:31:14;95780.56;;;10.68;89.15
39363;BME280;25088;43.238;23.110;2023-11-18T00:33:40;95749.75;;;10.57;87.94
39363;BME280;25088;43.238;23.110;2023-11-18T00:36:06;95772.66;;;10.77;87.36
39363;BME280;25088;43.238;23.110;2023-11-18T00:38:32;95761.44;;;10.88;85.47
39363;BME280;25088;43.238;23.110;2023-11-18T00:40:57;95757.63;;;10.90;85.26
39363;BME280;25088;43.238;23.110;2023-11-18T00:43:23;95752.44;;;10.83;84.22
39363;BME280;25088;43.238;23.110;2023-11-18T00:45:48;95747.25;;;10.81;84.48
39363;BME280;25088;43.238;23.110;2023-11-18T00:48:13;95737.44;;;10.75;83.03
39363;BME280;25088;43.238;23.110;2023-11-18T00:50:40;95736.06;;;10.83;82.83
39363;BME280;25088;43.238;23.110;2023-11-18T00:53:05;95744.00;;;10.79;82.25
39363;BME280;25088;43.238;23.110;2023-11-18T00:55:31;95726.00;;;10.48;82.34
39363;BME280;25088;43.238;23.110;2023-11-18T00:57:57;95764.22;;;10.58;81.02
39363;BME280;25088;43.238;23.110;2023-11-18T01:00:23;95764.19;;;10.68;80.26
39363;BME280;25088;43.238;23.110;2023-11-18T01:02:51;95775.94;;;10.69;79.38
39363;BME280;25088;43.238;23.110;2023-11-18T01:05:18;95783.88;;;10.70;79.72
39363;BME280;25088;43.238;23.110;2023-11-18T01:07:44;95763.09;;;10.59;79.43
39363;BME280;25088;43.238;23.110;2023-11-18T01:10:11;95774.88;;;10.49;79.52
39363;BME280;25088;43.238;23.110;2023-11-18T01:12:37;95757.13;;;10.37;76.81
39363;BME280;25088;43.238;23.110;2023-11-18T01:15:03;95787.16;;;10.42;78.00
39363;BME280;25088;43.238;23.110;2023-11-18T01:17:29;95769.16;;;10.25;81.00
39363;BME280;25088;43.238;23.110;2023-11-18T01:19:56;95767.50;;;10.24;80.08
39363;BME280;25088;43.238;23.110;2023-11-18T01:22:22;95759.00;;;10.10;80.08
39363;BME280;25088;43.238;23.110;2023-11-18T01:24:47;95742.34;;;10.02;81.90
39363;BME280;25088;43.238;23.110;2023-11-18T01:27:13;95769.34;;;10.03;81.70
39363;BME280;25088;43.238;23.110;2023-11-18T01:29:39;95773.44;;;9.96;82.90
39363;BME280;25088;43.238;23.110;2023-11-18T01:32:05;95757.59;;;9.88;82.17
39363;BME280;25088;43.238;23.110;2023-11-18T01:34:35;95750.50;;;9.71;82.48
39363;BME280;25088;43.238;23.110;2023-11-18T01:37:01;95767.41;;;9.89;81.84
39363;BME280;25088;43.238;23.110;2023-11-18T01:39:27;95771.25;;;9.93;80.83
39363;BME280;25088;43.238;23.110;2023-11-18T01:41:52;95782.44;;;9.96;80.05
39363;BME280;25088;43.238;23.110;2023-11-18T01:44:18;95807.25;;;9.90;79.51
39363;BME280;25088;43.238;23.110;2023-11-18T01:46:49;95804.94;;;9.51;81.11
39363;BME280;25088;43.238;23.110;2023-11-18T01:49:15;95808.19;;;9.53;81.67
39363;BME280;25088;43.238;23.110;2023-11-18T01:51:42;95810.91;;;9.48;81.84
39363;BME280;25088;43.238;23.110;2023-11-18T01:54:10;95811.38;;;9.35;82.98
39363;BME280;25088;43.238;23.110;2023-11-18T01:56:43;95796.31;;;9.12;83.68
39363;BME280;25088;43.238;23.110;2023-11-18T01:59:11;95826.31;;;9.22;84.51
39363;BME280;25088;43.238;23.110;2023-11-18T02:01:46;95826.03;;;9.23;84.73
39363;BME280;25088;43.238;23.110;2023-11-18T02:04:13;95821.81;;;8.95;86.66
39363;BME280;25088;43.238;23.110;2023-11-18T02:06:39;95828.22;;;8.79;86.67
39363;BME280;25088;43.238;23.110;2023-11-18T02:09:05;95823.44;;;8.59;88.24
39363;BME280;25088;43.238;23.110;2023-11-18T02:11:58;95815.69;;;8.78;85.72
39363;BME280;25088;43.238;23.110;2023-11-18T02:14:21;95814.41;;;8.86;83.33
39363;BME280;25088;43.238;23.110;2023-11-18T02:16:51;95816.41;;;8.63;80.66
39363;BME280;25088;43.238;23.110;2023-11-18T02:19:24;95819.22;;;8.78;83.58
39363;BME280;25088;43.238;23.110;2023-11-18T02:21:50;95764.56;;;8.43;84.24
39363;BME280;25088;43.238;23.110;2023-11-18T02:24:27;95811.59;;;8.75;84.00
39363;BME280;25088;43.238;23.110;2023-11-18T02:26:54;95819.41;;;9.04;82.63
39363;BME280;25088;43.238;23.110;2023-11-18T02:29:21;95812.97;;;8.78;84.35
39363;BME280;25088;43.238;23.110;2023-11-18T02:31:49;95820.78;;;8.69;85.18
39363;BME280;25088;43.238;23.110;2023-11-18T02:34:21;95802.53;;;8.65;85.85
39363;BME280;25088;43.238;23.110;2023-11-18T02:36:49;95807.84;;;8.49;87.94
39363;BME280;25088;43.238;23.110;2023-11-18T02:39:24;95816.63;;;8.57;87.23
39363;BME280;25088;43.238;23.110;2023-11-18T02:41:54;95795.00;;;8.40;87.76
39363;BME280;25088;43.238;23.110;2023-11-18T02:44:23;95803.16;;;8.40;88.42
39363;BME280;25088;43.238;23.110;2023-11-18T02:46:50;95806.34;;;8.32;89.02
39363;BME280;25088;43.238;23.110;2023-11-18T02:49:16;95766.78;;;8.19;87.05
39363;BME280;25088;43.238;23.110;2023-11-18T02:51:43;95804.75;;;8.36;86.54
39363;BME280;25088;43.238;23.110;2023-11-18T02:54:12;95800.09;;;8.31;86.11
39363;BME280;25088;43.238;23.110;2023-11-18T02:56:38;95805.25;;;8.33;86.12
39363;BME280;25088;43.238;23.110;2023-11-18T02:59:03;95800.91;;;8.32;86.40
39363;BME280;25088;43.238;23.110;2023-11-18T03:01:33;95804.25;;;8.39;84.79
39363;BME280;25088;43.238;23.110;2023-11-18T03:04:04;95813.00;;;8.19;84.19
39363;BME280;25088;43.238;23.110;2023-11-18T03:06:30;95798.38;;;7.93;85.19
39363;BME280;25088;43.238;23.110;2023-11-18T03:08:57;95821.09;;;7.82;87.62
39363;BME280;25088;43.238;23.110;2023-11-18T03:11:22;95817.72;;;7.74;87.43
39363;BME280;25088;43.238;23.110;2023-11-18T03:13:48;95834.38;;;7.56;85.99
39363;BME280;25088;43.238;23.110;2023-11-18T03:16:14;95837.31;;;7.11;77.47
39363;BME280;25088;43.238;23.110;2023-11-18T03:18:40;95827.88;;;7.13;66.93
39363;BME280;25088;43.238;23.110;2023-11-18T03:21:11;95835.00;;;7.19;72.92
39363;BME280;25088;43.238;23.110;2023-11-18T03:23:38;95822.75;;;7.17;75.42
39363;BME280;25088;43.238;23.110;2023-11-18T03:26:04;95840.19;;;7.43;76.44
39363;BME280;25088;43.238;23.110;2023-11-18T03:28:30;95846.38;;;7.38;72.96
39363;BME280;25088;43.238;23.110;2023-11-18T03:30:56;95847.31;;;7.27;74.25
39363;BME280;25088;43.238;23.110;2023-11-18T03:33:22;95850.22;;;7.42;74.75
39363;BME280;25088;43.238;23.110;2023-11-18T03:35:47;95855.69;;;7.25;75.95
39363;BME280;25088;43.238;23.110;2023-11-18T03:38:13;95841.44;;;7.35;74.11
39363;BME280;25088;43.238;23.110;2023-11-18T03:40:40;95848.00;;;7.17;72.48
39363;BME280;25088;43.238;23.110;2023-11-18T03:43:07;95826.84;;;6.97;70.56
39363;BME280;25088;43.238;23.110;2023-11-18T03:45:33;95831.31;;;7.09;65.87
39363;BME280;25088;43.238;23.110;2023-11-18T03:47:58;95822.56;;;7.02;64.60
39363;BME280;25088;43.238;23.110;2023-11-18T03:50:26;95827.22;;;7.06;68.43
39363;BME280;25088;43.238;23.110;2023-11-18T03:52:51;95827.25;;;6.89;73.50
39363;BME280;25088;43.238;23.110;2023-11-18T03:55:17;95810.50;;;6.76;75.14
39363;BME280;25088;43.238;23.110;2023-11-18T03:57:43;95830.47;;;6.86;75.38
39363;BME280;25088;43.238;23.110;2023-11-18T04:00:11;95826.38;;;6.84;76.08
39363;BME280;25088;43.238;23.110;2023-11-18T04:02:37;95800.09;;;6.67;76.20
39363;BME280;25088;43.238;23.110;2023-11-18T04:05:03;95812.88;;;6.89;75.25
39363;BME280;25088;43.238;23.110;2023-11-18T04:07:29;95810.09;;;6.84;75.35
39363;BME280;25088;43.238;23.110;2023-11-18T04:09:54;95834.59;;;7.11;75.49
39363;BME280;25088;43.238;23.110;2023-11-18T04:12:20;95828.53;;;7.04;68.87
39363;BME280;25088;43.238;23.110;2023-11-18T04:14:45;95834.03;;;7.09;66.56
39363;BME280;25088;43.238;23.110;2023-11-18T04:17:11;95822.84;;;7.05;67.18
39363;BME280;25088;43.238;23.110;2023-11-18T04:19:36;95832.34;;;7.24;68.54
39363;BME280;25088;43.238;23.110;2023-11-18T04:22:02;95830.50;;;7.30;67.24
39363;BME280;25088;43.238;23.110;2023-11-18T04:24:29;95825.16;;;7.13;62.63
39363;BME280;25088;43.238;23.110;2023-11-18T04:26:55;95824.72;;;7.21;67.60
39363;BME280;25088;43.238;23.110;2023-11-18T04:29:20;95818.31;;;7.11;63.94
39363;BME280;25088;43.238;23.110;2023-11-18T04:31:48;95813.50;;;6.96;70.14
39363;BME280;25088;43.238;23.110;2023-11-18T04:34:13;95823.22;;;6.92;70.90
39363;BME280;25088;43.238;23.110;2023-11-18T04:36:41;95815.38;;;6.95;74.97
39363;BME280;25088;43.238;23.110;2023-11-18T04:39:06;95811.09;;;6.99;75.02
39363;BME280;25088;43.238;23.110;2023-11-18T04:41:32;95821.91;;;6.94;74.18
39363;BME280;25088;43.238;23.110;2023-11-18T04:43:58;95796.44;;;6.79;73.94
39363;BME280;25088;43.238;23.110;2023-11-18T04:46:23;95836.56;;;7.15;74.87
39363;BME280;25088;43.238;23.110;2023-11-18T04:48:49;95833.22;;;7.08;75.36
39363;BME280;25088;43.238;23.110;2023-11-18T04:51:14;95850.59;;;7.29;75.99
39363;BME280;25088;43.238;23.110;2023-11-18T04:53:40;95860.16;;;7.32;75.81
39363;BME280;25088;43.238;23.110;2023-11-18T04:56:05;95854.47;;;7.33;76.06
39363;BME280;25088;43.238;23.110;2023-11-18T04:58:37;95810.69;;;7.30;75.34
39363;BME280;25088;43.238;23.110;2023-11-18T05:01:03;95846.56;;;7.54;74.29
39363;BME280;25088;43.238;23.110;2023-11-18T05:03:29;95833.84;;;7.59;72.79
39363;BME280;25088;43.238;23.110;2023-11-18T05:05:55;95832.84;;;7.65;70.84
39363;BME280;25088;43.238;23.110;2023-11-18T05:08:21;95827.13;;;7.62;73.13
39363;BME280;25088;43.238;23.110;2023-11-18T05:10:50;95835.38;;;7.50;75.76
39363;BME280;25088;43.238;23.110;2023-11-18T05:13:16;95835.00;;;7.63;74.58
39363;BME280;25088;43.238;23.110;2023-11-18T05:15:46;95848.09;;;7.66;74.12
39363;BME280;25088;43.238;23.110;2023-11-18T05:18:15;95836.28;;;7.34;73.94
39363;BME280;25088;43.238;23.110;2023-11-18T05:20:44;95850.28;;;7.47;70.15
39363;BME280;25088;43.238;23.110;2023-11-18T05:23:10;95843.13;;;7.19;60.09
39363;BME280;25088;43.238;23.110;2023-11-18T05:25:36;95847.47;;;7.37;62.59
39363;BME280;25088;43.238;23.110;2023-11-18T05:28:02;95845.31;;;7.61;60.06
39363;BME280;25088;43.238;23.110;2023-11-18T05:30:28;95830.09;;;7.87;62.14
39363;BME280;25088;43.238;23.110;2023-11-18T05:32:56;95843.03;;;8.02;56.35
39363;BME280;25088;43.238;23.110;2023-11-18T05:35:23;95840.97;;;8.14;57.36
39363;BME280;25088;43.238;23.110;2023-11-18T05:37:54;95821.47;;;8.22;59.26
39363;BME280;25088;43.238;23.110;2023-11-18T05:40:20;95813.31;;;8.49;60.99
39363;BME280;25088;43.238;23.110;2023-11-18T05:42:45;95816.69;;;8.62;60.22
39363;BME280;25088;43.238;23.110;2023-11-18T05:45:13;95789.88;;;8.43;62.31
39363;BME280;25088;43.238;23.110;2023-11-18T05:47:55;95811.66;;;8.48;58.59
39363;BME280;25088;43.238;23.110;2023-11-18T05:50:22;95803.03;;;8.57;57.48
39363;BME280;25088;43.238;23.110;2023-11-18T05:52:50;95813.66;;;8.58;58.26
39363;BME280;25088;43.238;23.110;2023-11-18T05:55:16;95821.25;;;8.56;52.07
39363;BME280;25088;43.238;23.110;2023-11-18T05:57:41;95816.72;;;8.67;52.61
39363;BME280;25088;43.238;23.110;2023-11-18T06:00:14;95829.03;;;8.79;51.72
39363;BME280;25088;43.238;23.110;2023-11-18T06:02:41;95837.94;;;8.70;56.72
39363;BME280;25088;43.238;23.110;2023-11-18T06:05:08;95821.88;;;8.68;56.83
39363;BME280;25088;43.238;23.110;2023-11-18T06:07:33;95838.91;;;8.86;55.33
39363;BME280;25088;43.238;23.110;2023-11-18T06:10:00;95817.28;;;8.74;54.05
39363;BME280;25088;43.238;23.110;2023-11-18T06:12:27;95829.66;;;8.87;58.02
39363;BME280;25088;43.238;23.110;2023-11-18T06:14:52;95842.44;;;8.86;52.25
39363;BME280;25088;43.238;23.110;2023-11-18T06:17:17;95811.34;;;8.77;57.15
39363;BME280;25088;43.238;23.110;2023-11-18T06:19:44;95839.50;;;8.98;58.83
39363;BME280;25088;43.238;23.110;2023-11-18T06:22:10;95842.34;;;9.18;56.49
39363;BME280;25088;43.238;23.110;2023-11-18T06:24:36;95847.34;;;9.31;58.04
39363;BME280;25088;43.238;23.110;2023-11-18T06:27:04;95849.28;;;9.41;54.58
39363;BME280;25088;43.238;23.110;2023-11-18T06:29:30;95849.75;;;9.28;51.81
39363;BME280;25088;43.238;23.110;2023-11-18T06:31:56;95839.75;;;9.44;52.45
39363;BME280;25088;43.238;23.110;2023-11-18T06:34:21;95853.97;;;9.51;52.80
39363;BME280;25088;43.238;23.110;2023-11-18T06:36:47;95828.38;;;9.57;53.63
39363;BME280;25088;43.238;23.110;2023-11-18T06:39:13;95860.00;;;9.58;52.17
39363;BME280;25088;43.238;23.110;2023-11-18T06:41:38;95857.28;;;9.58;50.12
39363;BME280;25088;43.238;23.110;2023-11-18T06:44:13;95845.25;;;9.54;51.61
39363;BME280;25088;43.238;23.110;2023-11-18T06:46:43;95852.25;;;9.35;53.14
39363;BME280;25088;43.238;23.110;2023-11-18T06:49:09;95857.91;;;8.80;48.97
39363;BME280;25088;43.238;23.110;2023-11-18T06:51:40;95865.09;;;8.65;48.05
39363;BME280;25088;43.238;23.110;2023-11-18T06:54:06;95845.59;;;8.73;47.88
39363;BME280;25088;43.238;23.110;2023-11-18T06:56:39;95869.31;;;8.77;48.41
39363;BME280;25088;43.238;23.110;2023-11-18T06:59:08;95873.28;;;8.65;49.16
39363;BME280;25088;43.238;23.110;2023-11-18T07:01:35;95884.56;;;8.78;47.55
39363;BME280;25088;43.238;23.110;2023-11-18T07:04:01;95890.22;;;8.72;47.49
39363;BME280;25088;43.238;23.110;2023-11-18T07:06:26;95878.56;;;8.76;48.32
39363;BME280;25088;43.238;23.110;2023-11-18T07:08:52;95880.53;;;8.86;48.04
39363;BME280;25088;43.238;23.110;2023-11-18T07:11:19;95890.53;;;8.75;50.35
39363;BME280;25088;43.238;23.110;2023-11-18T07:13:47;95865.50;;;8.78;50.13
39363;BME280;25088;43.238;23.110;2023-11-18T07:16:13;95859.16;;;8.68;49.16
39363;BME280;25088;43.238;23.110;2023-11-18T07:18:39;95862.16;;;8.66;50.47
39363;BME280;25088;43.238;23.110;2023-11-18T07:21:06;95866.03;;;8.75;49.31
39363;BME280;25088;43.238;23.110;2023-11-18T07:23:32;95879.59;;;8.70;48.76
39363;BME280;25088;43.238;23.110;2023-11-18T07:25:58;95884.34;;;8.53;46.71
39363;BME280;25088;43.238;23.110;2023-11-18T07:28:24;95883.34;;;8.64;48.45
39363;BME280;25088;43.238;23.110;2023-11-18T07:30:49;95874.75;;;8.77;48.99
39363;BME280;25088;43.238;23.110;2023-11-18T07:33:16;95867.13;;;8.79;47.48
39363;BME280;25088;43.238;23.110;2023-11-18T07:35:49;95880.31;;;8.93;48.14
39363;BME280;25088;43.238;23.110;2023-11-18T07:38:15;95865.84;;;8.87;47.63
39363;BME280;25088;43.238;23.110;2023-11-18T07:40:41;95863.91;;;8.83;48.07
39363;BME280;25088;43.238;23.110;2023-11-18T07:43:13;95841.34;;;8.87;48.50
39363;BME280;25088;43.238;23.110;2023-11-18T07:45:39;95859.50;;;8.76;46.85
39363;BME280;25088;43.238;23.110;2023-11-18T07:48:06;95860.97;;;8.94;49.23
39363;BME280;25088;43.238;23.110;2023-11-18T07:50:40;95860.66;;;8.86;48.66
39363;BME280;25088;43.238;23.110;2023-11-18T07:53:07;95862.78;;;8.78;46.54
39363;BME280;25088;43.238;23.110;2023-11-18T07:55:33;95872.41;;;8.91;47.55
39363;BME280;25088;43.238;23.110;2023-11-18T07:58:02;95870.81;;;8.95;46.79
39363;BME280;25088;43.238;23.110;2023-11-18T08:00:29;95872.81;;;8.73;46.08
39363;BME280;25088;43.238;23.110;2023-11-18T08:02:57;95863.59;;;8.79;46.15
39363;BME280;25088;43.238;23.110;2023-11-18T08:05:22;95847.84;;;8.49;45.79
39363;BME280;25088;43.238;23.110;2023-11-18T08:07:48;95851.28;;;8.39;45.97
39363;BME280;25088;43.238;23.110;2023-11-18T08:10:14;95870.88;;;8.68;46.08
39363;BME280;25088;43.238;23.110;2023-11-18T08:12:44;95880.75;;;8.79;46.14
39363;BME280;25088;43.238;23.110;2023-11-18T08:15:10;95874.59;;;8.94;44.50
39363;BME280;25088;43.238;23.110;2023-11-18T08:17:36;95860.97;;;8.94;46.50
39363;BME280;25088;43.238;23.110;2023-11-18T08:20:02;95865.22;;;9.17;45.49
39363;BME280;25088;43.238;23.110;2023-11-18T08:22:40;95869.50;;;9.03;45.00
39363;BME280;25088;43.238;23.110;2023-11-18T08:25:07;95890.59;;;9.23;45.66
39363;BME280;25088;43.238;23.110;2023-11-18T08:27:34;95886.91;;;9.44;45.32
39363;BME280;25088;43.238;23.110;2023-11-18T08:30:01;95885.25;;;9.43;45.97
39363;BME280;25088;43.238;23.110;2023-11-18T08:32:26;95853.56;;;9.27;46.02
39363;BME280;25088;43.238;23.110;2023-11-18T08:34:52;95900.84;;;9.53;46.01
39363;BME280;25088;43.238;23.110;2023-11-18T08:37:17;95893.03;;;9.72;45.59
39363;BME280;25088;43.238;23.110;2023-11-18T08:39:42;95901.81;;;9.84;45.79
39363;BME280;25088;43.238;23.110;2023-11-18T08:42:08;95884.53;;;9.63;45.57
39363;BME280;25088;43.238;23.110;2023-11-18T08:44:33;95909.41;;;9.77;44.41
39363;BME280;25088;43.238;23.110;2023-11-18T08:46:59;95895.53;;;9.26;44.51
39363;BME280;25088;43.238;23.110;2023-11-18T08:49:24;95894.44;;;9.27;44.29
39363;BME280;25088;43.238;23.110;2023-11-18T08:51:50;95895.22;;;9.22;44.61
39363;BME280;25088;43.238;23.110;2023-11-18T08:54:24;95914.03;;;8.87;44.24
39363;BME280;25088;43.238;23.110;2023-11-18T08:56:54;95888.47;;;9.30;44.05
39363;BME280;25088;43.238;23.110;2023-11-18T08:59:20;95890.34;;;9.29;45.49
39363;BME280;25088;43.238;23.110;2023-11-18T09:01:53;95890.28;;;9.19;44.63
39363;BME280;25088;43.238;23.110;2023-11-18T09:04:27;95883.56;;;9.32;44.88
39363;BME280;25088;43.238;23.110;2023-11-18T09:06:53;95876.47;;;9.26;45.14
39363;BME280;25088;43.238;23.110;2023-11-18T09:09:25;95886.69;;;9.51;43.41
39363;BME280;25088;43.238;23.110;2023-11-18T09:11:54;95894.19;;;9.33;44.05
39363;BME280;25088;43.238;23.110;2023-11-18T09:14:26;95888.28;;;9.47;44.02
39363;BME280;25088;43.238;23.110;2023-11-18T09:16:52;95876.94;;;9.65;43.27
39363;BME280;25088;43.238;23.110;2023-11-18T09:19:20;95857.91;;;9.80;44.57
39363;BME280;25088;43.238;23.110;2023-11-18T09:21:47;95886.03;;;9.91;43.57
39363;BME280;25088;43.238;23.110;2023-11-18T09:24:12;95826.94;;;9.39;42.97
39363;BME280;25088;43.238;23.110;2023-11-18T09:26:39;95861.44;;;9.76;42.14
39363;BME280;25088;43.238;23.110;2023-11-18T09:29:06;95876.44;;;9.83;41.53
39363;BME280;25088;43.238;23.110;2023-11-18T09:31:36;95890.63;;;9.80;43.81
39363;BME280;25088;43.238;23.110;2023-11-18T09:34:03;95894.31;;;9.54;43.10
39363;BME280;25088;43.238;23.110;2023-11-18T09:36:32;95900.69;;;9.27;43.29
39363;BME280;25088;43.238;23.110;2023-11-18T09:38:59;95881.81;;;9.11;42.79
39363;BME280;25088;43.238;23.110;2023-11-18T09:41:25;95886.88;;;9.39;42.22
39363;BME280;25088;43.238;23.110;2023-11-18T09:43:52;95868.66;;;9.45;41.86
39363;BME280;25088;43.238;23.110;2023-11-18T09:46:28;95875.09;;;9.81;42.39
39363;BME280;25088;43.238;23.110;2023-11-18T09:49:12;95887.16;;;10.00;43.58
39363;BME280;25088;43.238;23.110;2023-11-18T09:51:43;95878.22;;;10.20;43.45
39363;BME280;25088;43.238;23.110;2023-11-18T09:54:31;95885.28;;;10.11;41.26
39363;BME280;25088;43.238;23.110;2023-11-18T09:59:49;95892.16;;;10.34;42.34
39363;BME280;25088;43.238;23.110;2023-11-18T10:02:22;95865.31;;;9.90;41.02
39363;BME280;25088;43.238;23.110;2023-11-18T10:04:49;95890.78;;;9.58;42.14
39363;BME280;25088;43.238;23.110;2023-11-18T10:07:24;95901.75;;;9.74;42.25
39363;BME280;25088;43.238;23.110;2023-11-18T10:09:54;95896.88;;;9.76;41.88
39363;BME280;25088;43.238;23.110;2023-11-18T10:12:23;95892.59;;;9.38;42.32
39363;BME280;25088;43.238;23.110;2023-11-18T10:14:49;95882.28;;;9.45;41.31
39363;BME280;25088;43.238;23.110;2023-11-18T10:17:17;95911.53;;;9.17;42.95
39363;BME280;25088;43.238;23.110;2023-11-18T10:22:22;95899.22;;;9.57;42.23
39363;BME280;25088;43.238;23.110;2023-11-18T10:24:48;95853.19;;;9.08;42.62
39363;BME280;25088;43.238;23.110;2023-11-18T10:27:14;95904.13;;;9.13;43.53
39363;BME280;25088;43.238;23.110;2023-11-18T10:29:40;95890.84;;;9.21;43.08
39363;BME280;25088;43.238;23.110;2023-11-18T10:32:06;95913.81;;;9.30;43.11
39363;BME280;25088;43.238;23.110;2023-11-18T10:34:42;95881.31;;;8.82;43.39
39363;BME280;25088;43.238;23.110;2023-11-18T10:37:09;95888.03;;;9.06;43.17
39363;BME280;25088;43.238;23.110;2023-11-18T10:39:36;95891.09;;;9.20;43.20
39363;BME280;25088;43.238;23.110;2023-11-18T10:42:02;95882.31;;;9.07;43.11
39363;BME280;25088;43.238;23.110;2023-11-18T10:44:28;95872.09;;;8.88;43.00
39363;BME280;25088;43.238;23.110;2023-11-18T10:46:58;95891.41;;;9.23;42.88
39363;BME280;25088;43.238;23.110;2023-11-18T10:49:30;95875.53;;;9.63;43.12
39363;BME280;25088;43.238;23.110;2023-11-18T10:52:02;95875.28;;;9.64;42.05
39363;BME280;25088;43.238;23.110;2023-11-18T10:54:32;95866.31;;;9.16;42.93
39363;BME280;25088;43.238;23.110;2023-11-18T10:57:01;95854.59;;;9.16;41.81
39363;BME280;25088;43.238;23.110;2023-11-18T10:59:32;95850.63;;;9.39;42.06
39363;BME280;25088;43.238;23.110;2023-11-18T11:01:58;95850.75;;;9.64;41.76
39363;BME280;25088;43.238;23.110;2023-11-18T11:04:23;95859.44;;;9.56;40.96
39363;BME280;25088;43.238;23.110;2023-11-18T11:06:50;95873.63;;;9.63;41.65
39363;BME280;25088;43.238;23.110;2023-11-18T11:09:22;95875.81;;;9.56;42.30
39363;BME280;25088;43.238;23.110;2023-11-18T11:12:04;95842.00;;;9.57;41.75
39363;BME280;25088;43.238;23.110;2023-11-18T11:14:33;95852.34;;;9.50;42.13
39363;BME280;25088;43.238;23.110;2023-11-18T11:17:08;95844.50;;;9.69;42.33
39363;BME280;25088;43.238;23.110;2023-11-18T11:19:54;95825.78;;;10.03;41.43
39363;BME280;25088;43.238;23.110;2023-11-18T11:22:25;95842.09;;;9.77;41.22
39363;BME280;25088;43.238;23.110;2023-11-18T11:25:24;95837.28;;;10.15;40.95
39363;BME280;25088;43.238;23.110;2023-11-18T11:28:07;95854.16;;;10.02;40.59
39363;BME280;25088;43.238;23.110;2023-11-18T11:30:46;95828.00;;;10.16;40.71
39363;BME280;25088;43.238;23.110;2023-11-18T11:35:59;95820.91;;;10.00;40.16
39363;BME280;25088;43.238;23.110;2023-11-18T11:38:28;95846.09;;;10.58;39.99
39363;BME280;25088;43.238;23.110;2023-11-18T11:40:54;95829.47;;;10.65;39.33
39363;BME280;25088;43.238;23.110;2023-11-18T11:43:20;95853.72;;;10.41;39.52
39363;BME280;25088;43.238;23.110;2023-11-18T11:45:52;95854.28;;;10.63;39.27
39363;BME280;25088;43.238;23.110;2023-11-18T11:48:21;95816.06;;;10.48;39.98
39363;BME280;25088;43.238;23.110;2023-11-18T11:54:13;95855.09;;;10.58;39.30
39363;BME280;25088;43.238;23.110;2023-11-18T11:56:44;95872.03;;;10.50;39.96
39363;BME280;25088;43.238;23.110;2023-11-18T11:59:15;95883.25;;;10.79;39.42
39363;BME280;25088;43.238;23.110;2023-11-18T12:01:41;95853.75;;;10.71;38.93
39363;BME280;25088;43.238;23.110;2023-11-18T12:04:10;95852.63;;;10.47;38.89
39363;BME280;25088;43.238;23.110;2023-11-18T12:06:46;95849.84;;;10.21;39.87
39363;BME280;25088;43.238;23.110;2023-11-18T12:09:14;95890.63;;;9.80;40.12
39363;BME280;25088;43.238;23.110;2023-11-18T12:11:48;95884.81;;;10.24;40.16
39363;BME280;25088;43.238;23.110;2023-11-18T12:14:15;95881.03;;;10.56;39.52
39363;BME280;25088;43.238;23.110;2023-11-18T12:19:42;95906.72;;;10.85;39.34
39363;BME280;25088;43.238;23.110;2023-11-18T12:22:15;95875.56;;;10.41;39.37
39363;BME280;25088;43.238;23.110;2023-11-18T12:24:45;95876.78;;;10.02;40.10
39363;BME280;25088;43.238;23.110;2023-11-18T12:27:12;95863.94;;;9.88;40.35
39363;BME280;25088;43.238;23.110;2023-11-18T12:29:42;95907.75;;;9.71;41.77
39363;BME280;25088;43.238;23.110;2023-11-18T12:32:11;95892.66;;;9.53;41.04
39363;BME280;25088;43.238;23.110;2023-11-18T12:34:54;95917.16;;;10.00;40.60
39363;BME280;25088;43.238;23.110;2023-11-18T12:42:59;95926.53;;;9.67;41.46
39363;BME280;25088;43.238;23.110;2023-11-18T12:48:16;95906.44;;;8.94;42.21
39363;BME280;25088;43.238;23.110;2023-11-18T12:50:53;95901.78;;;8.89;42.10
39363;BME280;25088;43.238;23.110;2023-11-18T12:53:20;95935.75;;;9.19;42.52
39363;BME280;25088;43.238;23.110;2023-11-18T12:55:52;95926.31;;;8.94;43.26
39363;BME280;25088;43.238;23.110;2023-11-18T12:58:18;95875.13;;;8.59;43.48
39363;BME280;25088;43.238;23.110;2023-11-18T13:00:43;95915.94;;;8.86;43.54
39363;BME280;25088;43.238;23.110;2023-11-18T13:03:10;95891.75;;;8.95;43.69
39363;BME280;25088;43.238;23.110;2023-11-18T13:05:37;95929.09;;;8.99;43.60
39363;BME280;25088;43.238;23.110;2023-11-18T13:08:03;95939.53;;;8.75;43.63
39363;BME280;25088;43.238;23.110;2023-11-18T13:10:29;95936.00;;;8.80;44.02
39363;BME280;25088;43.238;23.110;2023-11-18T13:12:55;95942.22;;;9.07;43.85
39363;BME280;25088;43.238;23.110;2023-11-18T13:15:24;95948.22;;;8.77;44.27
39363;BME280;25088;43.238;23.110;2023-11-18T13:20:24;95950.34;;;8.70;43.50
39363;BME280;25088;43.238;23.110;2023-11-18T13:22:51;95977.13;;;9.11;42.52
39363;BME280;25088;43.238;23.110;2023-11-18T13:25:18;95920.91;;;8.99;43.50
39363;BME280;25088;43.238;23.110;2023-11-18T13:27:44;95956.75;;;8.86;43.95